createdAt,value
2022-09-16T00:00:33.497Z,11.13
2022-09-16T00:03:00.215Z,11.14
2022-09-16T00:05:26.881Z,11.18
2022-09-16T00:07:54.313Z,11.15
2022-09-16T00:10:21.469Z,11.22
2022-09-16T00:12:49.283Z,11.15
2022-09-16T00:15:16.472Z,11.19
2022-09-16T00:17:46.659Z,11.25
2022-09-16T00:20:13.655Z,11.20
2022-09-16T00:22:40.575Z,11.25
2022-09-16T00:25:07.784Z,11.35
2022-09-16T00:27:34.426Z,11.31
2022-09-16T00:30:01.064Z,11.30
2022-09-16T00:32:28.387Z,11.26
2022-09-16T00:34:55.019Z,11.04
2022-09-16T00:37:21.748Z,11.10
2022-09-16T00:39:49.718Z,11.08
2022-09-16T00:42:17.795Z,11.15
2022-09-16T00:45:03.153Z,11.11
2022-09-16T00:47:53.379Z,11.22
2022-09-16T00:50:31.904Z,11.19
2022-09-16T00:53:00.114Z,11.12
2022-09-16T00:55:30.257Z,11.18
2022-09-16T00:58:03.487Z,11.22
2022-09-16T01:00:30.160Z,11.30
2022-09-16T01:02:56.892Z,11.33
2022-09-16T01:05:26.690Z,11.28
2022-09-16T01:07:54.726Z,11.32
2022-09-16T01:10:24.372Z,11.17
2022-09-16T01:13:04.169Z,11.20
2022-09-16T01:15:57.343Z,11.06
2022-09-16T01:18:38.477Z,11.07
2022-09-16T01:21:44.546Z,10.86
2022-09-16T01:24:38.518Z,10.89
2022-09-16T01:27:20.215Z,10.89
2022-09-16T01:30:17.224Z,10.86
2022-09-16T01:33:11.299Z,10.93
2022-09-16T01:35:57.134Z,11.01
2022-09-16T01:39:02.546Z,11.04
2022-09-16T01:41:57.465Z,11.20
2022-09-16T01:44:34.149Z,11.19
2022-09-16T01:47:10.523Z,11.24
2022-09-16T01:49:58.076Z,11.29
2022-09-16T01:52:46.401Z,11.30
2022-09-16T01:55:23.447Z,11.26
2022-09-16T01:57:57.030Z,11.30
2022-09-16T02:00:23.758Z,11.31
2022-09-16T02:02:50.410Z,11.40
2022-09-16T02:05:25.490Z,11.48
2022-09-16T02:07:57.676Z,11.52
2022-09-16T02:10:32.028Z,11.54
2022-09-16T02:13:24.096Z,11.49
2022-09-16T02:15:53.062Z,11.34
2022-09-16T02:18:23.181Z,11.33
2022-09-16T02:20:51.632Z,11.27
2022-09-16T02:23:21.133Z,11.37
2022-09-16T02:25:49.105Z,11.42
2022-09-16T02:28:23.245Z,11.33
2022-09-16T02:30:53.500Z,11.34
2022-09-16T02:33:21.924Z,11.38
2022-09-16T02:35:51.145Z,11.50
2022-09-16T02:38:25.174Z,11.45
2022-09-16T02:40:56.977Z,11.49
2022-09-16T02:43:24.173Z,11.43
2022-09-16T02:46:06.373Z,11.55
2022-09-16T02:48:43.835Z,11.59
2022-09-16T02:51:16.137Z,11.51
2022-09-16T02:53:46.773Z,11.55
2022-09-16T02:56:23.529Z,11.51
2022-09-16T02:58:50.268Z,11.64
2022-09-16T03:01:18.551Z,11.61
2022-09-16T03:03:45.272Z,11.67
2022-09-16T03:06:16.261Z,11.75
2022-09-16T03:08:44.434Z,11.69
2022-09-16T03:11:11.075Z,11.78
2022-09-16T03:13:58.228Z,11.72
2022-09-16T03:16:55.936Z,11.71
2022-09-16T03:20:00.481Z,11.71
2022-09-16T03:22:48.543Z,11.73
2022-09-16T03:25:35.614Z,11.78
2022-09-16T03:28:08.542Z,11.80
2022-09-16T03:30:40.102Z,11.85
2022-09-16T03:33:11.770Z,11.91
2022-09-16T03:35:48.040Z,11.89
2022-09-16T03:38:14.957Z,11.81
2022-09-16T03:40:42.627Z,11.85
2022-09-16T03:43:15.154Z,11.89
2022-09-16T03:45:42.884Z,11.89
2022-09-16T03:48:10.912Z,11.79
2022-09-16T03:50:37.518Z,11.80
2022-09-16T03:53:04.398Z,11.72
2022-09-16T03:55:31.021Z,11.62
2022-09-16T03:57:57.625Z,11.62
2022-09-16T04:00:24.325Z,11.43
2022-09-16T04:02:51.092Z,11.55
2022-09-16T04:05:17.757Z,11.57
2022-09-16T04:07:44.377Z,11.35
2022-09-16T04:10:12.640Z,11.45
2022-09-16T04:12:39.340Z,11.48
2022-09-16T04:15:06.644Z,11.43
2022-09-16T04:17:33.748Z,11.44
2022-09-16T04:20:00.598Z,11.52
2022-09-16T04:22:31.314Z,11.53
2022-09-16T04:24:58.175Z,11.60
2022-09-16T04:27:25.012Z,11.54
2022-09-16T04:29:51.610Z,11.56
2022-09-16T04:32:18.275Z,11.66
2022-09-16T04:34:45.634Z,11.68
2022-09-16T04:37:12.225Z,11.72
2022-09-16T04:39:38.839Z,11.68
2022-09-16T04:42:07.063Z,11.63
2022-09-16T04:44:33.704Z,11.72
2022-09-16T04:47:00.676Z,11.74
2022-09-16T04:49:27.320Z,11.73
2022-09-16T04:51:53.997Z,11.89
2022-09-16T04:54:20.636Z,11.89
2022-09-16T04:56:47.249Z,11.95
2022-09-16T04:59:13.845Z,11.96
2022-09-16T05:01:40.799Z,12.03
2022-09-16T05:04:07.972Z,11.96
2022-09-16T05:06:36.848Z,12.01
2022-09-16T05:09:04.721Z,12.05
2022-09-16T05:11:34.404Z,12.10
2022-09-16T05:14:02.273Z,12.11
2022-09-16T05:16:29.534Z,12.03
2022-09-16T05:18:57.874Z,12.02
2022-09-16T05:21:26.381Z,12.00
2022-09-16T05:23:53.293Z,11.99
2022-09-16T05:26:25.149Z,12.07
2022-09-16T05:28:52.378Z,12.11
2022-09-16T05:31:24.196Z,12.14
2022-09-16T05:34:04.811Z,12.18
2022-09-16T05:36:34.922Z,12.19
2022-09-16T05:39:22.149Z,12.19
2022-09-16T05:41:49.360Z,12.25
2022-09-16T05:44:16.113Z,12.18
2022-09-16T05:46:43.617Z,12.26
2022-09-16T05:49:10.556Z,12.22
2022-09-16T05:51:39.009Z,12.16
2022-09-16T05:54:06.080Z,12.08
2022-09-16T05:56:32.874Z,12.01
2022-09-16T05:59:00.767Z,12.03
2022-09-16T06:01:32.425Z,12.01
2022-09-16T06:04:02.284Z,12.02
2022-09-16T06:06:30.404Z,11.98
2022-09-16T06:08:59.219Z,11.96
2022-09-16T06:11:27.085Z,11.97
2022-09-16T06:14:02.732Z,12.01
2022-09-16T06:16:33.050Z,12.09
2022-09-16T06:19:01.650Z,12.05
2022-09-16T06:21:29.016Z,12.12
2022-09-16T06:23:56.457Z,12.14
2022-09-16T06:26:24.553Z,12.05
2022-09-16T06:28:52.316Z,12.19
2022-09-16T06:31:22.124Z,12.14
2022-09-16T06:33:50.538Z,12.10
2022-09-16T06:36:22.390Z,12.07
2022-09-16T06:38:49.821Z,12.18
2022-09-16T06:41:17.792Z,12.20
2022-09-16T06:43:44.728Z,12.21
2022-09-16T06:46:16.615Z,12.34
2022-09-16T06:48:45.819Z,12.24
2022-09-16T06:51:14.884Z,12.31
2022-09-16T06:53:41.509Z,12.33
2022-09-16T06:56:13.048Z,12.34
2022-09-16T06:58:42.278Z,12.26
2022-09-16T07:01:17.424Z,12.31
2022-09-16T07:03:49.000Z,12.45
2022-09-16T07:06:16.872Z,12.59
2022-09-16T07:08:44.144Z,12.64
2022-09-16T07:11:15.818Z,12.69
2022-09-16T07:13:43.233Z,12.60
2022-09-16T07:16:13.780Z,12.72
2022-09-16T07:18:40.799Z,12.76
2022-09-16T07:21:12.490Z,12.73
2022-09-16T07:23:40.136Z,12.84
2022-09-16T07:26:10.884Z,12.83
2022-09-16T07:28:38.870Z,12.88
2022-09-16T07:31:11.490Z,12.87
2022-09-16T07:33:40.089Z,12.91
2022-09-16T07:36:08.865Z,12.99
2022-09-16T07:38:35.873Z,13.07
2022-09-16T07:41:25.701Z,13.12
2022-09-16T07:43:54.881Z,13.19
2022-09-16T07:46:21.950Z,13.23
2022-09-16T07:48:49.398Z,13.29
2022-09-16T07:51:19.908Z,13.37
2022-09-16T07:53:47.516Z,13.41
2022-09-16T07:56:16.857Z,13.38
2022-09-16T07:58:46.106Z,13.48
2022-09-16T08:01:15.279Z,13.52
2022-09-16T08:03:43.413Z,13.62
2022-09-16T08:06:18.679Z,13.48
2022-09-16T08:08:46.011Z,13.56
2022-09-16T08:11:15.121Z,13.69
2022-09-16T08:13:43.541Z,13.84
2022-09-16T08:16:21.874Z,13.67
2022-09-16T08:18:52.807Z,13.84
2022-09-16T08:21:22.620Z,13.90
2022-09-16T08:23:49.780Z,14.05
2022-09-16T08:26:17.372Z,14.20
2022-09-16T08:29:07.480Z,14.29
2022-09-16T08:31:33.485Z,14.53
2022-09-16T08:34:00.284Z,14.66
2022-09-16T08:36:26.881Z,14.68
2022-09-16T08:38:56.098Z,14.93
2022-09-16T08:41:34.607Z,15.09
2022-09-16T08:44:04.036Z,15.25
2022-09-16T08:46:40.810Z,15.44
2022-09-16T08:49:07.604Z,15.61
2022-09-16T08:51:34.310Z,15.62
2022-09-16T08:54:11.497Z,15.74
2022-09-16T08:56:41.480Z,15.68
2022-09-16T08:59:14.567Z,15.81
2022-09-16T09:01:50.148Z,15.81
2022-09-16T09:04:17.225Z,16.05
2022-09-16T09:06:59.718Z,16.10
2022-09-16T09:09:26.251Z,16.12
2022-09-16T09:11:56.740Z,16.10
2022-09-16T09:14:38.528Z,15.62
2022-09-16T09:17:50.418Z,15.41
2022-09-16T09:20:44.383Z,15.10
2022-09-16T09:23:27.977Z,14.53
2022-09-16T09:26:16.061Z,14.22
2022-09-16T09:29:12.249Z,13.83
2022-09-16T09:32:16.161Z,13.75
2022-09-16T09:35:05.785Z,13.75
2022-09-16T09:37:41.405Z,13.72
2022-09-16T09:40:28.208Z,13.72
2022-09-16T09:43:13.605Z,13.67
2022-09-16T09:46:02.304Z,13.62
2022-09-16T09:48:42.082Z,13.64
2022-09-16T09:51:38.006Z,13.69
2022-09-16T09:54:23.450Z,13.62
2022-09-16T09:56:50.569Z,13.69
2022-09-16T09:59:28.419Z,13.76
2022-09-16T10:01:56.388Z,13.68
2022-09-16T10:04:23.071Z,13.80
2022-09-16T10:06:50.641Z,13.69
2022-09-16T10:09:17.974Z,13.83
2022-09-16T10:11:57.115Z,13.78
2022-09-16T10:14:31.384Z,13.88
2022-09-16T10:17:02.057Z,13.83
2022-09-16T10:19:29.886Z,13.88
2022-09-16T10:22:08.252Z,13.97
2022-09-16T10:24:36.937Z,14.03
2022-09-16T10:27:27.137Z,13.99
2022-09-16T10:33:25.169Z,14.20
2022-09-16T10:36:02.753Z,14.22
2022-09-16T10:38:42.845Z,14.32
2022-09-16T10:41:15.555Z,14.18
2022-09-16T10:43:48.505Z,14.29
2022-09-16T10:46:16.329Z,14.56
2022-09-16T10:48:43.746Z,14.37
2022-09-16T10:51:22.865Z,14.36
2022-09-16T10:53:55.997Z,14.53
2022-09-16T10:56:29.536Z,14.74
2022-09-16T10:59:22.134Z,14.69
2022-09-16T11:02:14.856Z,14.62
2022-09-16T11:04:51.472Z,14.73
2022-09-16T11:07:35.753Z,14.86
2022-09-16T11:10:23.420Z,15.04
2022-09-16T11:12:52.806Z,15.23
2022-09-16T11:15:32.646Z,15.38
2022-09-16T11:18:08.005Z,15.50
2022-09-16T11:20:46.063Z,15.32
2022-09-16T11:23:12.966Z,15.29
2022-09-16T11:25:51.746Z,15.29
2022-09-16T11:28:43.328Z,15.36
2022-09-16T11:31:43.861Z,15.30
2022-09-16T11:34:37.669Z,15.18
2022-09-16T11:37:10.516Z,15.22
2022-09-16T11:39:48.656Z,15.12
2022-09-16T11:42:40.081Z,15.14
2022-09-16T11:45:25.317Z,15.01
2022-09-16T11:48:05.011Z,15.01
2022-09-16T11:50:56.909Z,14.80
2022-09-16T11:54:01.305Z,14.70
2022-09-16T11:56:40.536Z,14.84
2022-09-16T11:59:33.129Z,14.90
2022-09-16T12:02:18.867Z,14.82
2022-09-16T12:04:51.721Z,14.65
2022-09-16T12:07:40.219Z,14.75
2022-09-16T12:10:15.030Z,14.76
2022-09-16T12:12:46.283Z,14.85
2022-09-16T12:15:26.253Z,14.71
2022-09-16T12:17:59.201Z,14.90
2022-09-16T12:20:36.145Z,15.00
2022-09-16T12:23:24.585Z,14.89
2022-09-16T12:26:06.226Z,14.96
2022-09-16T12:28:38.150Z,15.07
2022-09-16T12:31:25.682Z,15.32
2022-09-16T12:34:02.465Z,15.15
2022-09-16T12:36:32.656Z,15.23
2022-09-16T12:38:59.701Z,15.25
2022-09-16T12:42:04.074Z,15.35
2022-09-16T12:45:05.648Z,15.23
2022-09-16T12:47:47.299Z,15.28
2022-09-16T12:50:32.356Z,15.18
2022-09-16T12:53:36.297Z,15.38
2022-09-16T12:56:12.600Z,15.45
2022-09-16T12:58:39.164Z,15.55
2022-09-16T13:01:19.588Z,15.47
2022-09-16T13:03:52.903Z,15.59
2022-09-16T13:06:32.500Z,15.65
2022-09-16T13:09:19.670Z,15.77
2022-09-16T13:14:52.130Z,15.90
2022-09-16T13:17:37.628Z,15.89
2022-09-16T13:20:22.574Z,15.81
2022-09-16T13:23:11.449Z,15.72
2022-09-16T13:25:56.823Z,15.70
2022-09-16T13:28:26.533Z,15.51
2022-09-16T13:30:53.448Z,15.38
2022-09-16T13:33:29.122Z,15.38
2022-09-16T13:36:25.561Z,15.42
2022-09-16T13:38:57.155Z,15.39
2022-09-16T13:41:29.517Z,15.46
2022-09-16T13:43:56.178Z,15.50
2022-09-16T13:46:34.907Z,15.55
2022-09-16T13:49:11.067Z,15.55
2022-09-16T13:51:46.467Z,15.42
2022-09-16T13:54:25.672Z,15.47
2022-09-16T13:57:14.222Z,15.26
2022-09-16T14:00:06.791Z,15.21
2022-09-16T14:02:39.839Z,15.20
2022-09-16T14:05:29.822Z,15.26
2022-09-16T14:08:05.178Z,14.98
2022-09-16T14:10:43.393Z,15.03
2022-09-16T14:13:17.408Z,15.06
2022-09-16T14:15:50.640Z,15.10
2022-09-16T14:18:26.325Z,15.05
2022-09-16T14:20:55.697Z,15.10
2022-09-16T14:23:24.041Z,15.05
2022-09-16T14:25:53.474Z,14.85
2022-09-16T14:28:27.253Z,14.96
2022-09-16T14:30:53.953Z,14.94
2022-09-16T14:33:27.822Z,14.86
2022-09-16T14:35:56.472Z,14.83
2022-09-16T14:41:46.385Z,14.82
2022-09-16T14:44:12.941Z,14.81
2022-09-16T14:46:45.153Z,14.80
2022-09-16T14:49:13.666Z,14.69
2022-09-16T14:51:44.242Z,14.70
2022-09-16T14:54:22.296Z,14.58
2022-09-16T14:56:59.528Z,14.50
2022-09-16T14:59:35.089Z,14.38
2022-09-16T15:02:09.093Z,14.37
2022-09-16T15:04:39.216Z,14.24
2022-09-16T15:07:12.902Z,14.28
2022-09-16T15:09:49.850Z,14.16
2022-09-16T15:12:28.759Z,14.05
2022-09-16T15:14:55.617Z,14.26
2022-09-16T15:17:26.006Z,14.55
2022-09-16T15:20:01.607Z,15.09
2022-09-16T15:22:28.262Z,15.14
2022-09-16T15:24:57.270Z,14.91
2022-09-16T15:27:29.075Z,15.03
2022-09-16T15:29:59.438Z,15.12
2022-09-16T15:32:30.853Z,15.03
2022-09-16T15:35:24.276Z,15.14
2022-09-16T15:37:54.329Z,15.22
2022-09-16T15:40:27.062Z,15.18
2022-09-16T15:43:13.196Z,15.11
2022-09-16T15:45:40.950Z,15.11
2022-09-16T15:48:18.668Z,15.03
2022-09-16T15:50:54.620Z,15.07
2022-09-16T15:53:30.117Z,15.06
2022-09-16T15:56:04.745Z,15.05
2022-09-16T15:58:42.029Z,15.05
2022-09-16T16:01:35.545Z,14.96
2022-09-16T16:04:04.593Z,14.85
2022-09-16T16:06:46.449Z,14.90
2022-09-16T16:09:29.112Z,14.94
2022-09-16T16:12:17.208Z,14.96
2022-09-16T16:14:44.195Z,14.99
2022-09-16T16:17:16.541Z,14.95
2022-09-16T16:19:44.622Z,14.98
2022-09-16T16:22:12.250Z,14.80
2022-09-16T16:24:39.070Z,14.81
2022-09-16T16:27:06.084Z,14.81
2022-09-16T16:29:32.681Z,14.70
2022-09-16T16:32:10.921Z,14.78
2022-09-16T16:34:39.740Z,14.69
2022-09-16T16:37:07.485Z,14.68
2022-09-16T16:39:34.734Z,14.65
2022-09-16T16:42:02.197Z,14.67
2022-09-16T16:44:28.785Z,14.63
2022-09-16T16:46:56.046Z,14.63
2022-09-16T16:49:23.792Z,14.59
2022-09-16T16:51:51.846Z,14.53
2022-09-16T16:54:19.192Z,14.50
2022-09-16T16:56:46.693Z,14.45
2022-09-16T16:59:13.993Z,14.42
2022-09-16T17:01:46.563Z,14.42
2022-09-16T17:04:15.285Z,14.40
2022-09-16T17:06:42.212Z,14.28
2022-09-16T17:09:14.991Z,14.28
2022-09-16T17:11:56.352Z,14.25
2022-09-16T17:14:24.955Z,14.23
2022-09-16T17:16:52.333Z,14.23
2022-09-16T17:19:19.385Z,14.09
2022-09-16T17:21:46.648Z,14.10
2022-09-16T17:24:13.349Z,14.08
2022-09-16T17:26:40.148Z,13.83
2022-09-16T17:29:14.794Z,13.83
2022-09-16T17:31:42.770Z,13.83
2022-09-16T17:34:12.556Z,13.75
2022-09-16T17:36:43.287Z,13.42
2022-09-16T17:39:15.464Z,13.26
2022-09-16T17:41:46.004Z,13.23
2022-09-16T17:44:13.657Z,13.27
2022-09-16T17:46:41.533Z,13.27
2022-09-16T17:49:13.328Z,13.17
2022-09-16T17:51:40.201Z,13.14
2022-09-16T17:54:08.793Z,13.07
2022-09-16T17:56:35.774Z,13.12
2022-09-16T17:59:02.419Z,12.98
2022-09-16T18:01:30.803Z,12.84
2022-09-16T18:03:58.059Z,12.81
2022-09-16T18:06:31.065Z,12.73
2022-09-16T18:09:01.126Z,12.73
2022-09-16T18:11:27.851Z,12.68
2022-09-16T18:13:58.884Z,12.68
2022-09-16T18:16:26.283Z,12.59
2022-09-16T18:18:55.553Z,12.45
2022-09-16T18:21:23.928Z,12.52
2022-09-16T18:24:00.577Z,12.39
2022-09-16T18:26:27.509Z,12.33
2022-09-16T18:29:11.769Z,12.33
2022-09-16T18:31:44.868Z,12.36
2022-09-16T18:34:12.390Z,12.34
2022-09-16T18:36:39.732Z,12.31
2022-09-16T18:39:08.053Z,12.31
2022-09-16T18:41:37.188Z,12.17
2022-09-16T18:44:10.787Z,12.06
2022-09-16T18:46:38.543Z,12.00
2022-09-16T18:49:06.483Z,11.98
2022-09-16T18:51:37.966Z,11.94
2022-09-16T18:54:16.888Z,11.78
2022-09-16T18:56:43.485Z,11.84
2022-09-16T18:59:21.545Z,11.78
2022-09-16T19:01:53.899Z,11.75
2022-09-16T19:04:26.355Z,11.79
2022-09-16T19:06:55.807Z,11.78
2022-09-16T19:09:23.728Z,11.76
2022-09-16T19:11:52.880Z,11.77
2022-09-16T19:14:22.513Z,11.82
2022-09-16T19:16:49.631Z,11.71
2022-09-16T19:19:16.585Z,11.59
2022-09-16T19:21:43.857Z,11.58
2022-09-16T19:24:16.227Z,11.50
2022-09-16T19:26:44.057Z,11.52
2022-09-16T19:29:11.614Z,11.60
2022-09-16T19:31:39.813Z,11.50
2022-09-16T19:34:07.006Z,11.48
2022-09-16T19:36:34.885Z,11.61
2022-09-16T19:39:02.130Z,11.59
2022-09-16T19:41:30.998Z,11.69
2022-09-16T19:43:59.894Z,11.70
2022-09-16T19:46:27.341Z,11.73
2022-09-16T19:48:54.766Z,11.62
2022-09-16T19:51:22.974Z,11.59
2022-09-16T19:53:50.269Z,11.71
2022-09-16T19:56:21.380Z,11.80
2022-09-16T19:58:48.646Z,11.75
2022-09-16T20:01:21.396Z,11.82
2022-09-16T20:03:51.397Z,11.66
2022-09-16T20:06:20.690Z,11.87
2022-09-16T20:08:48.802Z,11.83
2022-09-16T20:11:18.255Z,11.86
2022-09-16T20:13:51.324Z,11.87
2022-09-16T20:16:19.145Z,11.89
2022-09-16T20:18:45.905Z,11.84
2022-09-16T20:21:15.120Z,11.83
2022-09-16T20:23:42.325Z,11.89
2022-09-16T20:26:09.881Z,11.85
2022-09-16T20:28:38.944Z,11.81
2022-09-16T20:31:05.983Z,11.79
2022-09-16T20:33:33.640Z,11.81
2022-09-16T20:36:09.972Z,11.70
2022-09-16T20:38:37.781Z,11.73
2022-09-16T20:41:12.628Z,11.68
2022-09-16T20:43:39.494Z,11.64
2022-09-16T20:46:27.412Z,11.70
2022-09-16T20:48:58.674Z,11.69
2022-09-16T20:51:27.954Z,11.69
2022-09-16T20:53:56.767Z,11.78
2022-09-16T20:56:24.258Z,11.72
2022-09-16T20:58:51.194Z,11.79
2022-09-16T21:01:22.766Z,11.77
2022-09-16T21:03:58.331Z,11.68
2022-09-16T21:06:25.933Z,11.64
2022-09-16T21:08:56.617Z,11.52
2022-09-16T21:11:23.521Z,11.60
2022-09-16T21:14:08.704Z,11.58
2022-09-16T21:16:37.437Z,11.53
2022-09-16T21:19:06.898Z,11.33
2022-09-16T21:21:33.821Z,11.41
2022-09-16T21:24:03.081Z,11.40
2022-09-16T21:26:31.958Z,11.44
2022-09-16T21:29:00.641Z,11.41
2022-09-16T21:31:29.301Z,11.37
2022-09-16T21:33:56.951Z,11.32
2022-09-16T21:36:24.855Z,11.41
2022-09-16T21:38:52.053Z,11.32
2022-09-16T21:41:21.375Z,11.39
2022-09-16T21:43:51.321Z,11.30
2022-09-16T21:46:23.271Z,11.33
2022-09-16T21:48:50.531Z,11.31
2022-09-16T21:51:19.180Z,11.35
2022-09-16T21:53:46.799Z,11.34
2022-09-16T21:56:15.998Z,11.29
2022-09-16T21:58:42.747Z,11.25
2022-09-16T22:01:21.527Z,11.24
2022-09-16T22:03:53.729Z,11.26
2022-09-16T22:06:22.268Z,11.20
2022-09-16T22:08:49.353Z,11.23
2022-09-16T22:11:17.694Z,11.19
2022-09-16T22:13:44.467Z,11.26
2022-09-16T22:16:18.660Z,11.19
2022-09-16T22:18:45.379Z,11.18
2022-09-16T22:21:13.709Z,11.14
2022-09-16T22:23:41.727Z,11.06
2022-09-16T22:26:13.037Z,11.09
2022-09-16T22:28:40.220Z,11.04
2022-09-16T22:31:10.476Z,11.09
2022-09-16T22:33:38.494Z,11.07
2022-09-16T22:36:07.843Z,11.12
2022-09-16T22:38:34.838Z,11.11
2022-09-16T22:41:09.493Z,11.13
2022-09-16T22:43:37.427Z,11.12
2022-09-16T22:46:08.796Z,11.01
2022-09-16T22:48:35.835Z,11.07
2022-09-16T22:51:03.020Z,11.13
2022-09-16T22:53:30.765Z,11.08
2022-09-16T22:56:02.498Z,11.06
2022-09-16T22:58:29.677Z,11.05
2022-09-16T23:01:14.043Z,11.06
2022-09-16T23:03:41.263Z,11.06
2022-09-16T23:06:10.988Z,11.12
2022-09-16T23:08:41.106Z,11.13
2022-09-16T23:11:14.747Z,11.16
2022-09-16T23:13:42.593Z,11.11
2022-09-16T23:16:20.807Z,11.05
2022-09-16T23:18:47.941Z,11.09
2022-09-16T23:21:16.609Z,10.92
2022-09-16T23:23:46.270Z,11.12
2022-09-16T23:26:16.523Z,11.09
2022-09-16T23:28:43.201Z,11.06
2022-09-16T23:31:15.701Z,11.17
2022-09-16T23:33:42.934Z,11.14
2022-09-16T23:36:11.281Z,11.21
2022-09-16T23:38:38.679Z,11.20
2022-09-16T23:41:10.796Z,11.14
2022-09-16T23:43:38.465Z,11.19
2022-09-16T23:46:05.551Z,11.01
2022-09-16T23:48:32.428Z,11.05
2022-09-16T23:50:59.319Z,11.02
2022-09-16T23:53:25.978Z,11.12
2022-09-16T23:55:52.653Z,11.08
2022-09-16T23:58:19.541Z,11.17
